Time;durP1;ratioP1;P1;durP2;ratioP2;P2;SDS_P1;SDS_P2;PMS_P1;PMS_P2;Temp;Humidity;BMP_temperature;BMP_pressure;BME280_temperature;BME280_humidity;BME280_pressure;Samples;Min_cycle;Max_cycle;Signal;HPM_P1;HPM_P2
2021/11/01 00:01:08;;;;;;;6.60;5.60;;;15.10;99.90;;;;;;4988017;28;20444;-75
2021/11/01 00:03:34;;;;;;;11.00;4.80;;;15.10;99.90;;;;;;5003208;28;20487;-76
2021/11/01 00:06:00;;;;;;;8.20;5.10;;;15.10;99.90;;;;;;5000915;28;20440;-74
2021/11/01 00:08:26;;;;;;;8.43;4.93;;;15.10;99.90;;;;;;5002129;28;20281;-75
2021/11/01 00:10:51;;;;;;;8.53;4.07;;;15.10;99.90;;;;;;5000172;28;20716;-74
2021/11/01 00:13:17;;;;;;;6.37;5.77;;;15.20;99.90;;;;;;5009773;28;20538;-73
2021/11/01 00:15:43;;;;;;;5.47;4.97;;;15.20;99.90;;;;;;5006809;28;20272;-75
2021/11/01 00:18:09;;;;;;;5.80;5.13;;;15.30;99.90;;;;;;5008759;28;20188;-75
2021/11/01 00:20:35;;;;;;;5.93;5.07;;;15.30;99.90;;;;;;5006156;28;20216;-77
2021/11/01 00:23:01;;;;;;;5.53;4.90;;;15.30;99.90;;;;;;5010702;28;20467;-74
2021/11/01 00:25:27;;;;;;;7.97;5.13;;;15.30;99.90;;;;;;5008632;28;20506;-73
2021/11/01 00:27:55;;;;;;;5.43;4.57;;;15.20;99.90;;;;;;5006293;28;20439;-74
2021/11/01 00:30:21;;;;;;;6.03;4.87;;;15.30;99.90;;;;;;5002461;28;20448;-75
2021/11/01 00:32:47;;;;;;;6.60;4.90;;;15.50;99.90;;;;;;5005109;28;20848;-75
2021/11/01 00:35:14;;;;;;;5.97;4.93;;;15.40;99.90;;;;;;5005796;28;20177;-75
2021/11/01 00:37:43;;;;;;;5.63;4.23;;;15.40;99.90;;;;;;5004801;28;20436;-74
2021/11/01 00:40:09;;;;;;;4.30;3.63;;;15.30;99.90;;;;;;4991014;28;20525;-75
2021/11/01 00:42:35;;;;;;;6.03;4.17;;;15.30;99.90;;;;;;5002144;28;20437;-74
2021/11/01 00:45:01;;;;;;;5.63;4.00;;;15.20;99.90;;;;;;5005545;28;20546;-75
2021/11/01 00:47:26;;;;;;;4.63;3.00;;;15.20;99.90;;;;;;5006925;28;20182;-75
2021/11/01 00:49:52;;;;;;;4.00;3.03;;;15.00;99.90;;;;;;5002495;28;20720;-73
2021/11/01 00:52:25;;;;;;;5.50;2.80;;;14.90;99.90;;;;;;5002846;28;20208;-73
2021/11/01 00:54:57;;;;;;;3.20;2.50;;;14.80;99.90;;;;;;5005388;28;20929;-75
2021/11/01 00:57:22;;;;;;;3.87;2.50;;;14.70;99.90;;;;;;5007253;28;20483;-75
2021/11/01 00:59:48;;;;;;;3.77;2.30;;;14.60;99.90;;;;;;5010002;28;20482;-75
2021/11/01 01:02:14;;;;;;;4.50;2.33;;;14.50;99.90;;;;;;5003009;28;20185;-75
2021/11/01 01:04:40;;;;;;;3.33;1.80;;;14.50;99.90;;;;;;5010117;28;20217;-75
2021/11/01 01:07:06;;;;;;;3.10;1.73;;;14.50;99.90;;;;;;5005183;28;20494;-74
2021/11/01 01:09:32;;;;;;;5.90;1.63;;;14.40;99.90;;;;;;5004787;28;20193;-75
2021/11/01 01:11:58;;;;;;;2.50;1.70;;;14.30;99.90;;;;;;5006276;28;20494;-75
2021/11/01 01:14:27;;;;;;;6.90;1.90;;;14.40;99.90;;;;;;5001271;28;20251;-75
2021/11/01 01:16:54;;;;;;;2.77;1.70;;;14.30;99.90;;;;;;5004923;28;20204;-75
2021/11/01 01:19:23;;;;;;;4.57;1.80;;;14.30;99.90;;;;;;5001210;28;21221;-74
2021/11/01 01:24:33;;;;;;;4.90;1.77;;;14.30;99.90;;;;;;5008065;28;20579;-75
2021/11/01 01:26:59;;;;;;;5.37;1.63;;;14.20;99.90;;;;;;4999610;28;20527;-76
2021/11/01 01:29:25;;;;;;;4.20;1.60;;;14.20;99.90;;;;;;5000842;28;20188;-75
2021/11/01 01:31:51;;;;;;;2.30;1.43;;;14.10;99.90;;;;;;5000832;28;20656;-75
2021/11/01 01:34:18;;;;;;;4.13;2.00;;;14.00;99.90;;;;;;5009435;28;20597;-74
2021/11/01 01:36:45;;;;;;;4.17;2.00;;;13.90;99.90;;;;;;5000223;28;20466;-74
2021/11/01 01:39:11;;;;;;;5.00;1.60;;;13.70;99.90;;;;;;5008099;28;20440;-74
2021/11/01 01:41:43;;;;;;;4.30;1.80;;;13.60;99.90;;;;;;5004175;28;20428;-74
2021/11/01 01:44:08;;;;;;;4.70;1.80;;;13.50;99.90;;;;;;5001028;28;20474;-75
2021/11/01 01:46:34;;;;;;;2.73;1.50;;;13.40;99.90;;;;;;5001975;28;20437;-76
2021/11/01 01:49:00;;;;;;;2.33;1.60;;;13.30;99.90;;;;;;5000269;28;20862;-76
2021/11/01 01:51:28;;;;;;;3.20;1.53;;;13.30;99.90;;;;;;5002618;28;20284;-75
2021/11/01 01:53:54;;;;;;;3.20;1.30;;;13.20;99.90;;;;;;5000249;28;20213;-77
2021/11/01 01:56:22;;;;;;;3.93;1.73;;;13.10;99.90;;;;;;5004431;28;21009;-76
2021/11/01 01:58:58;;;;;;;2.87;1.50;;;13.00;99.90;;;;;;5002932;28;20947;-76
2021/11/01 02:01:24;;;;;;;3.37;1.40;;;13.00;99.90;;;;;;4972491;28;20453;-75
2021/11/01 02:03:52;;;;;;;5.13;1.50;;;12.90;99.90;;;;;;5001704;28;20470;-75
2021/11/01 02:06:40;;;;;;;2.10;1.23;;;12.90;99.90;;;;;;4999308;28;20445;-77
2021/11/01 02:09:09;;;;;;;7.97;1.67;;;12.90;99.90;;;;;;5005726;28;20513;-76
2021/11/01 02:11:47;;;;;;;6.80;1.40;;;12.80;99.90;;;;;;5007022;28;20896;-77
2021/11/01 02:14:16;;;;;;;1.93;1.40;;;12.80;99.90;;;;;;5001579;28;21245;-75
2021/11/01 02:16:42;;;;;;;7.30;1.70;;;12.70;99.90;;;;;;5008463;28;20872;-75
2021/11/01 02:19:15;;;;;;;2.83;1.50;;;12.60;99.90;;;;;;5006376;28;20927;-74
2021/11/01 02:21:48;;;;;;;3.23;1.47;;;12.60;99.90;;;;;;5009425;28;20451;-75
2021/11/01 02:24:23;;;;;;;7.30;1.63;;;12.70;99.90;;;;;;5006419;28;20463;-76
2021/11/01 02:26:50;;;;;;;3.23;1.67;;;12.80;99.90;;;;;;5003870;28;20444;-73
2021/11/01 02:29:16;;;;;;;3.97;1.33;;;12.80;99.90;;;;;;5000161;28;20522;-75
2021/11/01 02:31:43;;;;;;;5.00;1.30;;;12.70;99.90;;;;;;4996991;28;20439;-75
2021/11/01 02:34:09;;;;;;;11.87;1.97;;;12.70;99.90;;;;;;5000300;28;20464;-75
2021/11/01 02:36:35;;;;;;;3.50;1.40;;;12.80;99.90;;;;;;5002405;28;20797;-75
2021/11/01 02:39:02;;;;;;;6.80;1.50;;;12.90;99.90;;;;;;4996548;28;20444;-75
2021/11/01 02:41:33;;;;;;;4.53;1.30;;;13.00;99.90;;;;;;4986563;28;20843;-74
2021/11/01 02:44:02;;;;;;;3.77;1.30;;;12.80;99.90;;;;;;4998816;28;20472;-76
2021/11/01 02:46:28;;;;;;;4.13;1.40;;;12.90;99.90;;;;;;5003936;28;20439;-76
2021/11/01 02:48:55;;;;;;;3.20;1.30;;;12.80;99.90;;;;;;5000647;28;20444;-76
2021/11/01 02:51:24;;;;;;;5.03;1.20;;;12.90;99.90;;;;;;5003348;28;20654;-76
2021/11/01 02:53:50;;;;;;;3.20;1.40;;;12.60;99.90;;;;;;5001387;28;20491;-77
2021/11/01 02:56:16;;;;;;;2.43;1.60;;;12.50;99.90;;;;;;5001899;28;20428;-75
2021/11/01 02:58:43;;;;;;;4.20;1.83;;;12.40;99.90;;;;;;5000128;28;20539;-76
2021/11/01 03:01:13;;;;;;;3.07;1.33;;;12.50;99.90;;;;;;5001959;28;20947;-74
2021/11/01 03:03:39;;;;;;;3.70;1.50;;;12.50;99.90;;;;;;5004894;28;20451;-74
2021/11/01 03:06:06;;;;;;;3.93;1.30;;;12.50;99.90;;;;;;4988314;28;20452;-77
2021/11/01 03:08:33;;;;;;;6.70;2.33;;;12.40;99.90;;;;;;4990155;28;20980;-74
2021/11/01 03:11:01;;;;;;;5.03;2.37;;;12.30;99.90;;;;;;5001963;28;20431;-76
2021/11/01 03:13:29;;;;;;;5.57;1.33;;;12.20;99.90;;;;;;5003587;28;21111;-76
2021/11/01 03:15:57;;;;;;;9.97;1.67;;;12.30;99.90;;;;;;4998447;28;20464;-77
2021/11/01 03:18:29;;;;;;;4.30;1.93;;;12.30;99.90;;;;;;4998018;28;20523;-74
2021/11/01 03:20:56;;;;;;;8.20;1.57;;;12.20;99.90;;;;;;4990693;28;20444;-75
2021/11/01 03:23:30;;;;;;;10.20;2.00;;;12.30;99.90;;;;;;5003156;28;20514;-75
2021/11/01 03:26:03;;;;;;;5.03;1.57;;;12.30;99.90;;;;;;5008757;28;20816;-77
2021/11/01 03:28:31;;;;;;;2.80;1.30;;;12.30;99.90;;;;;;5002709;28;20950;-75
2021/11/01 03:30:58;;;;;;;3.53;1.50;;;12.40;99.90;;;;;;4999985;28;20827;-76
2021/11/01 03:33:29;;;;;;;5.40;1.50;;;12.40;99.90;;;;;;5001853;28;20979;-75
2021/11/01 03:35:56;;;;;;;2.40;1.50;;;12.40;99.90;;;;;;5001726;28;20480;-75
2021/11/01 03:38:23;;;;;;;6.57;2.03;;;12.50;99.90;;;;;;4989786;28;20951;-75
2021/11/01 03:40:50;;;;;;;5.43;1.40;;;12.40;99.90;;;;;;5001986;28;20474;-74
2021/11/01 03:43:33;;;;;;;5.20;1.57;;;12.40;99.90;;;;;;4997963;28;20468;-74
2021/11/01 03:46:00;;;;;;;3.30;1.57;;;12.30;99.90;;;;;;5005793;28;20452;-75
2021/11/01 03:48:28;;;;;;;4.17;1.50;;;12.30;99.90;;;;;;5003161;28;20440;-74
2021/11/01 03:51:01;;;;;;;1.73;1.20;;;12.20;99.90;;;;;;5000909;28;20435;-75
2021/11/01 03:53:27;;;;;;;3.90;1.40;;;12.30;99.90;;;;;;4997713;28;20903;-73
2021/11/01 03:55:56;;;;;;;4.30;1.30;;;12.50;99.90;;;;;;5006275;28;20443;-76
2021/11/01 03:58:23;;;;;;;5.00;1.60;;;12.40;99.90;;;;;;5003140;28;21406;-76
2021/11/01 04:00:48;;;;;;;2.70;1.50;;;12.50;99.90;;;;;;4998462;28;20452;-75
2021/11/01 04:03:14;;;;;;;4.13;1.63;;;12.40;99.90;;;;;;5006437;28;20478;-76
2021/11/01 04:05:40;;;;;;;5.30;1.40;;;12.50;99.90;;;;;;5001000;28;20248;-76
2021/11/01 04:08:05;;;;;;;2.23;1.57;;;12.50;99.90;;;;;;5001782;28;20185;-76
2021/11/01 04:10:31;;;;;;;3.97;1.33;;;12.40;99.90;;;;;;5000286;28;20620;-75
2021/11/01 04:12:57;;;;;;;3.30;1.27;;;12.50;99.90;;;;;;5002805;28;20209;-76
2021/11/01 04:15:26;;;;;;;2.67;1.50;;;12.50;99.90;;;;;;4996824;28;20193;-74
2021/11/01 04:18:02;;;;;;;3.67;1.37;;;12.40;99.90;;;;;;4985378;28;20270;-74
2021/11/01 04:23:30;;;;;;;5.37;1.87;;;12.50;99.90;;;;;;5002511;28;20528;-74
2021/11/01 04:25:45;;;;;;;1.90;1.50;;;12.50;99.90;;;;;;5006555;28;20201;-76
2021/11/01 04:28:11;;;;;;;3.27;1.40;;;12.40;99.90;;;;;;5003943;28;21147;-75
2021/11/01 04:30:39;;;;;;;6.23;2.07;;;12.50;99.90;;;;;;5000584;28;20691;-73
2021/11/01 04:33:08;;;;;;;4.60;1.90;;;12.60;99.90;;;;;;5002120;28;20593;-75
2021/11/01 04:35:38;;;;;;;4.70;1.60;;;12.50;99.90;;;;;;4984071;28;20987;-76
2021/11/01 04:38:38;;;;;;;3.40;1.40;;;12.50;99.90;;;;;;4983952;28;20448;-75
2021/11/01 04:54:04;;;;;;;2.87;1.73;;;12.30;99.90;;;;;;4999615;28;20466;-76
2021/11/01 04:56:30;;;;;;;3.07;1.60;;;12.30;99.90;;;;;;4998291;28;20440;-75
2021/11/01 04:58:59;;;;;;;3.87;1.27;;;12.30;99.90;;;;;;5004786;28;20489;-76
2021/11/01 05:01:51;;;;;;;4.33;1.50;;;12.20;99.90;;;;;;4999864;28;20664;-77
2021/11/01 05:04:16;;;;;;;3.27;1.50;;;12.20;99.90;;;;;;5011394;28;20467;-73
2021/11/01 05:06:48;;;;;;;5.30;2.33;;;12.30;99.90;;;;;;5006927;28;20428;-75
2021/11/01 05:09:19;;;;;;;4.03;1.50;;;12.30;99.90;;;;;;5009990;28;21231;-75
2021/11/01 05:17:24;;;;;;;4.03;1.50;;;12.20;99.90;;;;;;5000689;28;20443;-76
2021/11/01 05:22:31;;;;;;;6.03;2.00;;;12.30;99.90;;;;;;5011030;28;20439;-76
2021/11/01 05:25:08;;;;;;;4.03;1.30;;;12.30;99.90;;;;;;5008553;28;20208;-77
2021/11/01 05:30:04;;;;;;;4.00;1.43;;;12.40;99.90;;;;;;5010982;28;20439;-75
2021/11/01 05:32:32;;;;;;;2.07;1.20;;;12.30;99.90;;;;;;5006591;28;20185;-76
2021/11/01 05:34:58;;;;;;;3.50;1.60;;;12.30;99.90;;;;;;5012594;28;20455;-75
2021/11/01 05:37:23;;;;;;;5.40;1.67;;;12.40;99.90;;;;;;5002054;28;20494;-76
2021/11/01 05:39:50;;;;;;;1.80;1.20;;;12.20;99.90;;;;;;5005646;28;20883;-75
2021/11/01 05:42:15;;;;;;;3.50;1.40;;;12.30;99.90;;;;;;5006600;28;20259;-76
2021/11/01 05:44:41;;;;;;;4.97;1.27;;;12.30;99.90;;;;;;5004452;28;20982;-76
2021/11/01 05:47:07;;;;;;;4.50;1.97;;;12.40;99.90;;;;;;5006663;28;20192;-76
2021/11/01 05:49:36;;;;;;;3.83;1.40;;;12.30;99.90;;;;;;5007977;28;20197;-75
2021/11/01 05:52:04;;;;;;;2.10;1.27;;;12.30;99.90;;;;;;5007973;28;20507;-76
2021/11/01 05:54:32;;;;;;;3.37;1.13;;;12.40;99.90;;;;;;5008446;28;20451;-76
2021/11/01 05:59:56;;;;;;;1.30;1.20;;;12.30;99.90;;;;;;5012427;28;20453;-75
2021/11/01 06:15:08;;;;;;;2.23;1.00;;;12.20;99.90;;;;;;5007165;28;20475;-75
2021/11/01 06:17:34;;;;;;;4.93;1.20;;;12.20;99.90;;;;;;5009634;28;20466;-74
2021/11/01 06:19:59;;;;;;;3.60;1.60;;;12.10;99.90;;;;;;5003136;28;20902;-77
2021/11/01 06:22:26;;;;;;;4.03;1.63;;;12.10;99.90;;;;;;5007047;28;20205;-75
2021/11/01 06:24:58;;;;;;;4.83;1.43;;;12.20;99.90;;;;;;5006726;28;20216;-76
2021/11/01 06:27:25;;;;;;;2.90;1.27;;;12.20;99.90;;;;;;5004553;28;20853;-75
2021/11/01 06:33:43;;;;;;;2.13;1.30;;;12.20;99.90;;;;;;5005468;28;20431;-76
2021/11/01 06:49:45;;;;;;;4.17;1.50;;;12.40;99.90;;;;;;5005374;28;21008;-76
2021/11/01 07:19:07;;;;;;;1.60;1.00;;;11.80;99.90;;;;;;5004194;28;20428;-76
2021/11/01 07:30:14;;;;;;;2.83;1.33;;;12.00;99.90;;;;;;5007029;28;20439;-75
2021/11/01 08:40:04;;;;;;;2.80;1.33;;;12.10;99.90;;;;;;5006697;28;20476;-74
2021/11/01 08:42:48;;;;;;;2.00;1.30;;;12.10;99.90;;;;;;5013623;28;20197;-74
2021/11/01 08:50:31;;;;;;;2.83;1.20;;;12.00;99.90;;;;;;5009163;28;20547;-76
2021/11/01 09:12:36;;;;;;;4.73;1.60;;;12.30;99.90;;;;;;5010675;28;21080;-74
2021/11/01 09:19:55;;;;;;;2.70;1.10;;;12.30;99.90;;;;;;5006289;28;20978;-74
2021/11/01 09:27:34;;;;;;;2.80;1.77;;;12.40;99.90;;;;;;5005062;28;20799;-75
2021/11/01 09:35:50;;;;;;;3.20;1.93;;;12.50;99.90;;;;;;5007477;28;20431;-75
2021/11/01 09:43:28;;;;;;;2.83;1.20;;;12.60;99.90;;;;;;5013432;28;20618;-76
2021/11/01 09:45:56;;;;;;;3.13;1.70;;;12.70;99.90;;;;;;5008358;28;20481;-75
2021/11/01 09:48:23;;;;;;;1.80;1.40;;;12.70;99.90;;;;;;5010152;28;20448;-76
2021/11/01 09:50:50;;;;;;;2.50;1.30;;;12.60;99.90;;;;;;5008562;28;20424;-75
2021/11/01 09:53:20;;;;;;;1.93;1.20;;;12.60;99.90;;;;;;5005606;28;20988;-75
2021/11/01 09:55:55;;;;;;;4.23;1.50;;;12.60;99.90;;;;;;4999559;28;20416;-76
2021/11/01 10:01:07;;;;;;;3.90;1.20;;;12.60;99.90;;;;;;5012276;28;20504;-75
2021/11/01 10:03:33;;;;;;;1.70;1.27;;;12.50;99.90;;;;;;5007105;28;20590;-75
2021/11/01 10:06:01;;;;;;;2.57;1.60;;;12.70;99.90;;;;;;5005419;28;20185;-75
2021/11/01 10:08:27;;;;;;;2.37;1.40;;;12.80;99.90;;;;;;5009869;28;20420;-76
2021/11/01 10:10:53;;;;;;;2.80;1.63;;;12.70;99.90;;;;;;5007671;28;20497;-75
2021/11/01 10:13:19;;;;;;;1.53;1.30;;;12.80;99.90;;;;;;5008195;28;20432;-74
2021/11/01 10:18:49;;;;;;;2.17;1.40;;;12.80;99.90;;;;;;5005111;28;20419;-76
2021/11/01 10:21:18;;;;;;;1.77;1.50;;;12.90;99.90;;;;;;4993283;28;20428;-76
2021/11/01 10:23:57;;;;;;;2.27;1.13;;;12.80;99.90;;;;;;5003736;28;20484;-76
2021/11/01 10:26:29;;;;;;;2.40;1.30;;;12.90;99.90;;;;;;5010478;28;20804;-75
2021/11/01 10:29:05;;;;;;;2.27;1.20;;;13.00;99.90;;;;;;5008569;28;20423;-73
2021/11/01 10:31:41;;;;;;;3.20;1.27;;;13.00;99.90;;;;;;5008322;28;20535;-74
2021/11/01 10:34:10;;;;;;;3.43;1.50;;;13.00;99.90;;;;;;5009156;28;20466;-73
2021/11/01 10:36:38;;;;;;;1.83;1.20;;;12.90;99.90;;;;;;5006545;28;20800;-75
2021/11/01 10:39:19;;;;;;;2.30;1.13;;;12.90;99.90;;;;;;5008041;28;20439;-75
2021/11/01 10:41:57;;;;;;;2.07;1.20;;;12.90;99.90;;;;;;5004221;28;20502;-76
2021/11/01 10:58:55;;;;;;;1.60;1.30;;;13.00;99.90;;;;;;5006104;28;20414;-75
2021/11/01 11:14:57;;;;;;;3.23;1.40;;;13.20;99.90;;;;;;5000041;28;20455;-75
2021/11/01 11:17:36;;;;;;;2.13;1.67;;;13.20;99.90;;;;;;5013690;28;20447;-75
2021/11/01 11:33:30;;;;;;;7.23;1.30;;;13.40;99.90;;;;;;5009971;28;20196;-75
2021/11/01 11:49:34;;;;;;;5.47;1.33;;;13.60;99.90;;;;;;5003757;28;20452;-76
2021/11/01 11:52:11;;;;;;;2.43;1.57;;;13.70;99.90;;;;;;5003994;28;20432;-75
2021/11/01 11:54:45;;;;;;;4.07;1.40;;;13.80;99.90;;;;;;5006729;28;20421;-76
2021/11/01 11:57:26;;;;;;;1.77;1.40;;;13.80;99.90;;;;;;4991111;28;20443;-75
2021/11/01 11:59:54;;;;;;;1.73;1.17;;;13.80;99.90;;;;;;5004068;28;20924;-76
2021/11/01 12:02:41;;;;;;;4.37;1.60;;;13.90;99.90;;;;;;4989326;28;20510;-72
2021/11/01 12:05:11;;;;;;;2.27;1.20;;;14.00;99.90;;;;;;5002174;28;20829;-75
2021/11/01 12:08:05;;;;;;;1.40;1.00;;;14.10;99.90;;;;;;5008184;28;20909;-75
2021/11/01 12:18:48;;;;;;;2.03;1.40;;;14.30;99.90;;;;;;5006836;28;20438;-74
2021/11/01 12:21:15;;;;;;;2.07;1.33;;;14.20;99.90;;;;;;5006805;28;20443;-76
2021/11/01 12:23:42;;;;;;;2.43;1.50;;;14.20;99.90;;;;;;5006281;28;20537;-75
2021/11/01 12:26:10;;;;;;;3.80;1.43;;;14.20;99.90;;;;;;5006504;28;20435;-75
2021/11/01 12:28:37;;;;;;;4.80;1.70;;;14.30;99.90;;;;;;5002223;28;20436;-75
2021/11/01 12:31:03;;;;;;;2.00;1.23;;;14.40;99.90;;;;;;5007794;28;20428;-75
2021/11/01 12:33:29;;;;;;;2.77;1.30;;;14.40;99.90;;;;;;5008721;28;21067;-74
2021/11/01 12:36:02;;;;;;;2.03;1.50;;;14.40;99.90;;;;;;4988241;28;20847;-75
2021/11/01 12:38:40;;;;;;;2.40;1.30;;;14.30;99.90;;;;;;5005662;28;20444;-74
2021/11/01 12:41:14;;;;;;;2.80;1.40;;;14.40;99.90;;;;;;5007524;28;20455;-76
2021/11/01 12:46:40;;;;;;;2.33;1.53;;;14.40;99.90;;;;;;5014472;28;20578;-78
2021/11/01 12:57:25;;;;;;;1.90;1.30;;;14.50;99.90;;;;;;5004197;28;20993;-78
2021/11/01 12:59:51;;;;;;;2.20;1.37;;;14.40;99.90;;;;;;5005799;28;20817;-76
2021/11/01 13:02:27;;;;;;;1.67;1.23;;;14.60;99.90;;;;;;4997351;28;20435;-75
2021/11/01 13:04:59;;;;;;;2.67;1.60;;;14.70;99.90;;;;;;5003489;28;20204;-76
2021/11/01 13:20:50;;;;;;;1.70;1.30;;;14.90;99.90;;;;;;5010188;28;20432;-77
2021/11/01 13:23:16;;;;;;;3.50;1.37;;;15.00;99.90;;;;;;5012460;28;20459;-74
2021/11/01 13:26:00;;;;;;;2.63;1.53;;;15.10;99.90;;;;;;4975742;28;20467;-73
2021/11/01 13:37:21;;;;;;;3.27;1.70;;;15.20;99.90;;;;;;5008337;28;20423;-75
2021/11/01 13:39:59;;;;;;;2.90;1.70;;;15.10;99.90;;;;;;5008797;28;20433;-75
2021/11/01 13:42:25;;;;;;;2.70;1.40;;;15.00;99.90;;;;;;5008114;28;20451;-77
2021/11/01 13:44:51;;;;;;;5.13;2.00;;;14.80;99.90;;;;;;5008838;28;20472;-76
2021/11/01 13:47:18;;;;;;;5.00;1.80;;;14.80;99.90;;;;;;5004701;28;20272;-76
2021/11/01 13:49:47;;;;;;;2.10;1.57;;;14.90;99.90;;;;;;5007590;28;20184;-77
2021/11/01 13:55:06;;;;;;;4.80;1.47;;;15.00;99.90;;;;;;5009687;28;20448;-75
2021/11/01 13:57:41;;;;;;;3.20;1.70;;;15.00;99.90;;;;;;4990203;28;20456;-76
2021/11/01 14:14:30;;;;;;;5.40;2.60;;;15.20;99.90;;;;;;4989265;28;22664;-76
2021/11/01 15:08:37;;;;;;;6.73;2.20;;;14.60;99.90;;;;;;5000902;28;21088;-78
2021/11/01 15:13:42;;;;;;;1.60;1.50;;;14.40;99.90;;;;;;4987439;28;20458;-76
2021/11/01 15:16:25;;;;;;;3.70;1.53;;;14.30;99.90;;;;;;4970808;28;20443;-77
2021/11/01 16:18:27;;;;;;;8.90;2.73;;;13.40;99.90;;;;;;4994226;28;20860;-59
2021/11/01 16:20:55;;;;;;;3.43;2.33;;;13.30;99.90;;;;;;4988747;28;20477;-59
2021/11/01 16:23:37;;;;;;;5.30;2.80;;;13.20;99.90;;;;;;4998546;28;20428;-59
2021/11/01 16:26:25;;;;;;;2.37;1.90;;;13.20;99.90;;;;;;5006253;28;20412;-59
2021/11/01 16:29:00;;;;;;;3.40;2.13;;;13.10;99.90;;;;;;5012154;28;20828;-59
2021/11/01 16:31:33;;;;;;;4.83;2.10;;;13.00;99.90;;;;;;4989594;28;20452;-59
2021/11/01 16:34:07;;;;;;;4.93;2.50;;;13.00;99.90;;;;;;5023274;22;20496;-54
2021/11/01 16:36:50;;;;;;;2.93;2.33;;;12.80;99.90;;;;;;4986118;28;20509;-56
2021/11/01 17:00:53;;;;;;;7.00;3.67;;;12.60;99.90;;;;;;5022426;22;20513;-51
2021/11/01 17:08:36;;;;;;;8.07;5.40;;;12.30;99.90;;;;;;5023346;28;20416;-51
2021/11/01 17:24:23;;;;;;;5.53;3.80;;;12.30;99.90;;;;;;5012683;28;20521;-56
2021/11/01 17:35:46;;;;;;;4.70;3.20;;;12.60;99.90;;;;;;5011239;28;20427;-55
2021/11/01 18:37:20;;;;;;;14.10;11.60;;;12.40;99.90;;;;;;5009016;28;20938;-51
2021/11/01 18:40:04;;;;;;;7.27;5.77;;;12.30;99.90;;;;;;5012069;28;20935;-49
2021/11/01 18:53:26;;;;;;;14.23;8.77;;;11.80;99.90;;;;;;5009531;28;20510;-50
2021/11/01 18:55:54;;;;;;;12.63;7.60;;;11.70;99.90;;;;;;5016643;28;20427;-50
2021/11/01 18:58:27;;;;;;;6.00;3.87;;;11.60;99.90;;;;;;5013529;28;20507;-53
2021/11/01 19:00:57;;;;;;;4.03;3.40;;;11.80;99.90;;;;;;4993201;28;20423;-54
2021/11/01 19:03:25;;;;;;;3.93;2.93;;;12.10;99.90;;;;;;5012418;28;20439;-51
2021/11/01 19:06:01;;;;;;;5.73;2.93;;;12.00;99.90;;;;;;5011868;28;20412;-55
2021/11/01 20:11:27;;;;;;;6.97;4.07;;;11.20;99.90;;;;;;5012852;28;20515;-53
2021/11/01 20:14:25;;;;;;;6.73;4.10;;;11.20;99.90;;;;;;5008293;28;20526;-51
2021/11/01 21:26:10;;;;;;;8.27;6.13;;;10.90;99.90;;;;;;5007343;28;20490;-53
2021/11/01 21:28:36;;;;;;;8.60;6.10;;;11.00;99.90;;;;;;5003897;28;20509;-53
2021/11/01 21:31:02;;;;;;;7.10;5.30;;;11.00;99.90;;;;;;5004844;28;20426;-53
2021/11/01 21:33:31;;;;;;;7.53;5.63;;;10.90;99.90;;;;;;5007931;28;20252;-57
2021/11/01 21:46:04;;;;;;;5.10;3.97;;;11.10;99.90;;;;;;5017398;22;21872;-57
2021/11/01 21:48:29;;;;;;;4.60;3.97;;;10.90;99.90;;;;;;4991534;28;20443;-58
2021/11/01 21:50:55;;;;;;;5.70;3.87;;;10.70;99.90;;;;;;5019203;28;20173;-56
2021/11/01 21:53:22;;;;;;;7.33;4.30;;;10.80;99.90;;;;;;5014896;28;20652;-52
2021/11/01 21:55:48;;;;;;;7.73;4.07;;;10.80;99.90;;;;;;5018753;28;20205;-56
2021/11/01 22:19:42;;;;;;;6.87;4.77;;;10.80;99.90;;;;;;5018435;28;20948;-56
2021/11/01 22:25:14;;;;;;;7.50;5.47;;;10.60;99.90;;;;;;5014169;28;20521;-59
2021/11/01 22:33:32;;;;;;;7.40;4.90;;;10.20;99.90;;;;;;5011140;28;20473;-58
2021/11/01 22:44:35;;;;;;;8.87;5.57;;;10.20;99.90;;;;;;5006704;28;20471;-58
2021/11/01 22:47:22;;;;;;;6.33;5.00;;;10.30;99.90;;;;;;5013548;28;20330;-58
2021/11/01 22:57:59;;;;;;;6.40;4.73;;;10.40;99.90;;;;;;5017381;28;20436;-58
2021/11/01 23:00:59;;;;;;;10.40;4.50;;;10.40;99.90;;;;;;5012644;28;20919;-60
2021/11/01 23:03:35;;;;;;;5.13;4.13;;;10.20;99.90;;;;;;5013197;28;20427;-58
2021/11/01 23:33:21;;;;;;;9.50;4.23;;;10.50;99.90;;;;;;5013975;28;20431;-58
2021/11/01 23:35:47;;;;;;;4.40;3.10;;;10.40;99.90;;;;;;5016529;28;20455;-58
2021/11/01 23:38:13;;;;;;;3.93;2.20;;;10.30;99.90;;;;;;5005970;28;20466;-55
2021/11/01 23:40:39;;;;;;;3.60;2.40;;;10.40;99.90;;;;;;5014520;28;20428;-59
2021/11/01 23:43:06;;;;;;;3.70;2.70;;;10.60;99.90;;;;;;5014226;28;20258;-59
2021/11/01 23:45:36;;;;;;;3.70;2.97;;;10.50;99.90;;;;;;5016110;28;20212;-56
2021/11/01 23:48:03;;;;;;;4.10;2.67;;;10.60;99.90;;;;;;5014028;28;20443;-58
2021/11/01 23:50:33;;;;;;;8.17;3.67;;;10.50;99.90;;;;;;5017186;28;20415;-56
2021/11/01 23:53:05;;;;;;;3.63;2.70;;;10.20;99.90;;;;;;5014084;28;20542;-57
2021/11/01 23:55:31;;;;;;;5.77;2.80;;;10.30;99.90;;;;;;5016444;28;20939;-58
2021/11/01 23:57:57;;;;;;;6.50;2.73;;;10.30;99.90;;;;;;5014883;28;20428;-57
